Climatologie pour Saint-Brevin les Pins
Jour • Résumé pour juillet 13, 2017 Système :  Métrique    Anglais   Mixte
« - 1 jour
+ 1 jour »
Jour Semaine Mois Année Personnalisé
  Maximum : Minimum : Moyenne :
Température sous abri : 23.6 °C 16.6 °C 19.7 °C
Point de rosée : 18.9 °C 14.5 °C 16.5 °C
Humidité : 95 % 61 % 83 %
Vitesse du vent : 24.1 km/h 0.0 km/h 5.7 km/h
Rafale : 29.0 km/h - -
Direction :- - West
Pression : 1021.6 hPa 1019.9 hPa -
Précipitations : 0.0 mm    
Historical Graphs
 
 
Tableau de données pour juillet 13, 2017
Heure Tempé Pt rosée Pression Vent Vitesse Rafale Humidité Taux pluie (/hr) Soleil
00:00 17.7 °C 16.4 °C 1020.9 hPa WSW 6.4 km/h 9.7 km/h 92 % 0.0 mm 0 W/m2
00:10 17.8 °C 16.5 °C 1020.9 hPa West 3.2 km/h 12.9 km/h 92 % 0.0 mm 0 W/m2
00:15 17.8 °C 16.5 °C 1020.9 hPa WSW 1.6 km/h 12.9 km/h 92 % 0.0 mm 0 W/m2
00:20 17.8 °C 16.5 °C 1020.9 hPa WNW 4.8 km/h 12.9 km/h 92 % 0.0 mm 0 W/m2
00:25 17.8 °C 16.5 °C 1020.9 hPa WSW 1.6 km/h 12.9 km/h 92 % 0.0 mm 0 W/m2
00:30 17.9 °C 16.6 °C 1020.9 hPa West 6.4 km/h 11.3 km/h 92 % 0.0 mm 0 W/m2
00:35 17.9 °C 16.6 °C 1020.9 hPa SW 3.2 km/h 12.9 km/h 92 % 0.0 mm 0 W/m2
00:40 17.9 °C 16.6 °C 1020.9 hPa SW 6.4 km/h 12.9 km/h 92 % 0.0 mm 0 W/m2
00:45 17.9 °C 16.6 °C 1020.9 hPa WSW 1.6 km/h 12.9 km/h 92 % 0.0 mm 0 W/m2
00:50 17.9 °C 16.5 °C 1020.9 hPa West 6.4 km/h 11.3 km/h 91 % 0.0 mm 0 W/m2
00:55 17.9 °C 16.5 °C 1020.9 hPa West 3.2 km/h 9.7 km/h 91 % 0.0 mm 0 W/m2
01:00 17.9 °C 16.4 °C 1020.5 hPa WSW 3.2 km/h 9.7 km/h 91 % 0.0 mm 0 W/m2
01:05 17.8 °C 16.3 °C 1020.5 hPa WSW 6.4 km/h 12.9 km/h 91 % 0.0 mm 0 W/m2
01:10 17.8 °C 16.3 °C 1020.5 hPa WSW 4.8 km/h 12.9 km/h 91 % 0.0 mm 0 W/m2
01:15 17.7 °C 16.4 °C 1020.5 hPa South 1.6 km/h 12.9 km/h 92 % 0.0 mm 0 W/m2
01:20 17.7 °C 16.4 °C 1020.9 hPa WSW 3.2 km/h 9.7 km/h 92 % 0.0 mm 0 W/m2
01:25 17.6 °C 16.3 °C 1020.9 hPa West 4.8 km/h 11.3 km/h 92 % 0.0 mm 0 W/m2
01:30 17.6 °C 16.2 °C 1020.5 hPa WSW 6.4 km/h 11.3 km/h 92 % 0.0 mm 0 W/m2
01:35 17.4 °C 16.1 °C 1020.5 hPa WNW 11.3 km/h 12.9 km/h 92 % 0.0 mm 0 W/m2
01:40 17.5 °C 16.4 °C 1020.5 hPa West 3.2 km/h 12.9 km/h 93 % 0.0 mm 0 W/m2
01:45 17.4 °C 16.2 °C 1020.5 hPa WNW 4.8 km/h 11.3 km/h 93 % 0.0 mm 0 W/m2
01:50 17.3 °C 16.2 °C 1020.9 hPa West 4.8 km/h 12.9 km/h 93 % 0.0 mm 0 W/m2
01:55 17.3 °C 16.2 °C 1020.5 hPa WSW 1.6 km/h 12.9 km/h 93 % 0.0 mm 0 W/m2
02:00 17.1 °C 16.0 °C 1020.5 hPa WNW 1.6 km/h 11.3 km/h 93 % 0.0 mm 0 W/m2
02:05 17.0 °C 16.0 °C 1020.5 hPa Calm   6.4 km/h 94 % 0.0 mm 0 W/m2
02:10 17.1 °C 16.1 °C 1020.5 hPa Calm   8.0 km/h 94 % 0.0 mm 0 W/m2
02:15 17.0 °C 16.0 °C 1020.5 hPa West 1.6 km/h 8.0 km/h 94 % 0.0 mm 0 W/m2
02:20 16.9 °C 15.9 °C 1020.5 hPa West 3.2 km/h 8.0 km/h 94 % 0.0 mm 0 W/m2
02:25 16.9 °C 15.9 °C 1020.5 hPa WSW 1.6 km/h 8.0 km/h 94 % 0.0 mm 0 W/m2
02:30 16.8 °C 15.8 °C 1020.5 hPa WNW 1.6 km/h 8.0 km/h 94 % 0.0 mm 0 W/m2
02:35 16.6 °C 15.6 °C 1020.5 hPa Calm   6.4 km/h 94 % 0.0 mm 0 W/m2
02:40 16.8 °C 16.0 °C 1020.5 hPa Calm   6.4 km/h 95 % 0.0 mm 0 W/m2
02:45 16.8 °C 16.0 °C 1020.5 hPa West 3.2 km/h 8.0 km/h 95 % 0.0 mm 0 W/m2
02:50 16.9 °C 16.1 °C 1020.5 hPa Calm   8.0 km/h 95 % 0.0 mm 0 W/m2
02:55 17.1 °C 16.2 °C 1020.5 hPa West 1.6 km/h 9.7 km/h 95 % 0.0 mm 0 W/m2
03:00 17.2 °C 16.4 °C 1020.5 hPa Calm   9.7 km/h 95 % 0.0 mm 0 W/m2
03:05 17.1 °C 16.3 °C 1020.5 hPa Calm   6.4 km/h 95 % 0.0 mm 0 W/m2
03:10 17.1 °C 16.2 °C 1020.5 hPa West 4.8 km/h 8.0 km/h 95 % 0.0 mm 0 W/m2
03:15 17.2 °C 16.4 °C 1020.5 hPa West 3.2 km/h 8.0 km/h 95 % 0.0 mm 0 W/m2
03:20 17.2 °C 16.4 °C 1020.5 hPa West 1.6 km/h 6.4 km/h 95 % 0.0 mm 0 W/m2
03:25 17.3 °C 16.5 °C 1020.5 hPa Calm   6.4 km/h 95 % 0.0 mm 0 W/m2
03:30 17.3 °C 16.4 °C 1020.5 hPa WSW 1.6 km/h 9.7 km/h 94 % 0.0 mm 0 W/m2
03:35 17.3 °C 16.4 °C 1020.5 hPa Calm   9.7 km/h 94 % 0.0 mm 0 W/m2
03:40 17.4 °C 16.4 °C 1020.5 hPa WSW 6.4 km/h 8.0 km/h 94 % 0.0 mm 0 W/m2
03:45 17.4 °C 16.5 °C 1020.5 hPa West 1.6 km/h 8.0 km/h 94 % 0.0 mm 0 W/m2
03:50 17.5 °C 16.5 °C 1020.5 hPa WSW 8.0 km/h 8.0 km/h 94 % 0.0 mm 0 W/m2
03:55 17.6 °C 16.6 °C 1020.5 hPa WSW 3.2 km/h 9.7 km/h 94 % 0.0 mm 0 W/m2
04:00 17.6 °C 16.4 °C 1020.5 hPa WSW 3.2 km/h 9.7 km/h 93 % 0.0 mm 0 W/m2
04:05 17.6 °C 16.4 °C 1020.2 hPa SW 3.2 km/h 6.4 km/h 93 % 0.0 mm 0 W/m2
04:10 17.5 °C 16.4 °C 1020.2 hPa SSW 1.6 km/h 6.4 km/h 93 % 0.0 mm 0 W/m2
04:15 17.4 °C 16.3 °C 1020.2 hPa Calm   6.4 km/h 93 % 0.0 mm 0 W/m2
04:20 17.3 °C 16.2 °C 1020.2 hPa WSW 8.0 km/h 9.7 km/h 93 % 0.0 mm 0 W/m2
04:25 17.3 °C 16.1 °C 1020.2 hPa Calm   9.7 km/h 93 % 0.0 mm 0 W/m2
04:30 17.2 °C 16.0 °C 1020.2 hPa WSW 4.8 km/h 8.0 km/h 93 % 0.0 mm 0 W/m2
04:35 17.2 °C 16.0 °C 1020.2 hPa Calm   9.7 km/h 93 % 0.0 mm 0 W/m2
04:40 17.2 °C 16.2 °C 1020.2 hPa Calm   9.7 km/h 94 % 0.0 mm 0 W/m2
04:45 17.2 °C 16.1 °C 1020.2 hPa WSW 4.8 km/h 8.0 km/h 93 % 0.0 mm 0 W/m2
04:50 17.2 °C 16.0 °C 1020.2 hPa WSW 1.6 km/h 8.0 km/h 93 % 0.0 mm 0 W/m2
04:55 17.2 °C 16.2 °C 1020.2 hPa WSW 6.4 km/h 9.7 km/h 94 % 0.0 mm 0 W/m2
05:00 17.3 °C 16.3 °C 1020.2 hPa Calm   9.7 km/h 94 % 0.0 mm 0 W/m2
05:05 17.3 °C 16.2 °C 1020.2 hPa WSW 1.6 km/h 8.0 km/h 93 % 0.0 mm 0 W/m2
05:10 17.3 °C 16.2 °C 1020.2 hPa Calm   8.0 km/h 93 % 0.0 mm 0 W/m2
05:15 17.3 °C 16.4 °C 1019.9 hPa West 1.6 km/h 8.0 km/h 94 % 0.0 mm 0 W/m2
05:20 17.3 °C 16.1 °C 1019.9 hPa West 3.2 km/h 8.0 km/h 93 % 0.0 mm 0 W/m2
05:25 17.3 °C 16.1 °C 1020.2 hPa WSW 4.8 km/h 9.7 km/h 93 % 0.0 mm 0 W/m2
05:30 17.2 °C 16.1 °C 1020.2 hPa SW 1.6 km/h 9.7 km/h 93 % 0.0 mm 0 W/m2
05:35 17.2 °C 16.0 °C 1020.2 hPa WSW 3.2 km/h 8.0 km/h 93 % 0.0 mm 0 W/m2
05:40 17.1 °C 16.1 °C 1020.2 hPa Calm   8.0 km/h 94 % 0.0 mm 0 W/m2
05:45 17.1 °C 16.1 °C 1020.2 hPa West 1.6 km/h 9.7 km/h 94 % 0.0 mm 0 W/m2
05:50 17.1 °C 16.1 °C 1020.2 hPa West 4.8 km/h 9.7 km/h 94 % 0.0 mm 0 W/m2
05:55 17.0 °C 16.0 °C 1020.2 hPa WSW 1.6 km/h 8.0 km/h 94 % 0.0 mm 0 W/m2
06:00 16.9 °C 16.0 °C 1019.9 hPa WSW 3.2 km/h 6.4 km/h 94 % 0.0 mm 0 W/m2
06:05 17.0 °C 16.0 °C 1020.2 hPa WNW 6.4 km/h 12.9 km/h 94 % 0.0 mm 0 W/m2
06:10 17.1 °C 16.1 °C 1020.2 hPa Calm   12.9 km/h 94 % 0.0 mm 0 W/m2
06:15 17.1 °C 16.1 °C 1020.2 hPa SW 4.8 km/h 6.4 km/h 94 % 0.0 mm 0 W/m2
06:25 17.2 °C 16.4 °C 1020.2 hPa West 3.2 km/h 6.4 km/h 95 % 0.0 mm 0 W/m2
06:30 17.1 °C 16.3 °C 1020.2 hPa West 3.2 km/h 4.8 km/h 95 % 0.0 mm 0 W/m2
06:35 17.2 °C 16.4 °C 1020.2 hPa Calm   4.8 km/h 95 % 0.0 mm 0 W/m2
06:40 17.3 °C 16.5 °C 1020.2 hPa Calm   9.7 km/h 95 % 0.0 mm 0 W/m2
06:45 17.4 °C 16.6 °C 1020.2 hPa Calm   9.7 km/h 95 % 0.0 mm 5 W/m2
06:50 17.4 °C 16.6 °C 1020.2 hPa Calm   6.4 km/h 95 % 0.0 mm 9 W/m2
06:55 17.6 °C 16.7 °C 1020.2 hPa Calm   8.0 km/h 95 % 0.0 mm 11 W/m2
07:00 17.6 °C 16.8 °C 1020.2 hPa Calm   8.0 km/h 95 % 0.0 mm 14 W/m2
07:05 17.7 °C 16.9 °C 1020.2 hPa Calm   6.4 km/h 95 % 0.0 mm 18 W/m2
07:10 17.7 °C 16.9 °C 1020.2 hPa WNW 6.4 km/h 8.0 km/h 95 % 0.0 mm 21 W/m2
07:15 17.8 °C 17.0 °C 1020.2 hPa Calm   8.0 km/h 95 % 0.0 mm 23 W/m2
07:20 17.8 °C 17.0 °C 1020.2 hPa West 1.6 km/h 6.4 km/h 95 % 0.0 mm 26 W/m2
07:25 17.9 °C 17.1 °C 1020.2 hPa WNW 4.8 km/h 9.7 km/h 95 % 0.0 mm 33 W/m2
07:30 17.9 °C 16.9 °C 1020.2 hPa Calm   9.7 km/h 94 % 0.0 mm 42 W/m2
07:35 17.9 °C 17.0 °C 1020.2 hPa WNW 1.6 km/h 4.8 km/h 94 % 0.0 mm 53 W/m2
07:40 18.1 °C 17.1 °C 1020.2 hPa SW 3.2 km/h 4.8 km/h 94 % 0.0 mm 62 W/m2
07:45 18.1 °C 17.1 °C 1020.2 hPa Calm   6.4 km/h 94 % 0.0 mm 67 W/m2
07:50 18.2 °C 17.2 °C 1020.2 hPa Calm   6.4 km/h 94 % 0.0 mm 69 W/m2
07:55 18.3 °C 17.3 °C 1020.2 hPa WSW 4.8 km/h 6.4 km/h 94 % 0.0 mm 77 W/m2
08:00 18.2 °C 17.1 °C 1020.2 hPa WSW 1.6 km/h 6.4 km/h 93 % 0.0 mm 93 W/m2
08:05 18.3 °C 17.1 °C 1020.2 hPa WSW 1.6 km/h 6.4 km/h 93 % 0.0 mm 97 W/m2
08:10 18.3 °C 17.2 °C 1020.2 hPa WSW 1.6 km/h 6.4 km/h 93 % 0.0 mm 107 W/m2
08:15 18.6 °C 17.5 °C 1020.2 hPa West 1.6 km/h 4.8 km/h 93 % 0.0 mm 134 W/m2
08:20 18.6 °C 17.5 °C 1020.2 hPa SW 3.2 km/h 6.4 km/h 93 % 0.0 mm 120 W/m2
08:25 18.6 °C 17.4 °C 1020.2 hPa Calm   8.0 km/h 93 % 0.0 mm 127 W/m2
08:30 18.6 °C 17.2 °C 1020.2 hPa Calm   8.0 km/h 92 % 0.0 mm 146 W/m2
08:35 18.7 °C 17.3 °C 1020.2 hPa Calm   8.0 km/h 92 % 0.0 mm 176 W/m2
08:40 18.9 °C 17.6 °C 1020.2 hPa WSW 1.6 km/h 4.8 km/h 92 % 0.0 mm 171 W/m2
08:45 18.8 °C 17.5 °C 1020.2 hPa SW 4.8 km/h 9.7 km/h 92 % 0.0 mm 167 W/m2
08:50 18.9 °C 17.4 °C 1020.5 hPa WSW 3.2 km/h 9.7 km/h 91 % 0.0 mm 158 W/m2
08:55 18.9 °C 17.4 °C 1020.5 hPa WSW 3.2 km/h 8.0 km/h 91 % 0.0 mm 174 W/m2
09:00 18.8 °C 17.3 °C 1020.5 hPa Calm   8.0 km/h 91 % 0.0 mm 181 W/m2
09:05 19.1 °C 17.6 °C 1020.5 hPa WNW 3.2 km/h 9.7 km/h 91 % 0.0 mm 185 W/m2
09:10 19.1 °C 17.6 °C 1020.5 hPa Calm   9.7 km/h 91 % 0.0 mm 186 W/m2
09:15 19.3 °C 17.8 °C 1020.5 hPa Calm   6.4 km/h 91 % 0.0 mm 193 W/m2
09:20 19.5 °C 17.8 °C 1020.5 hPa NNW 3.2 km/h 8.0 km/h 90 % 0.0 mm 213 W/m2
09:25 19.5 °C 17.8 °C 1020.5 hPa NNW 1.6 km/h 8.0 km/h 90 % 0.0 mm 230 W/m2
09:30 19.4 °C 17.8 °C 1020.5 hPa Calm   8.0 km/h 90 % 0.0 mm 225 W/m2
09:35 19.7 °C 18.0 °C 1020.5 hPa Calm   8.0 km/h 90 % 0.0 mm 227 W/m2
09:40 19.7 °C 17.9 °C 1020.5 hPa Calm   8.0 km/h 89 % 0.0 mm 223 W/m2
09:45 20.0 °C 18.1 °C 1020.5 hPa Calm   6.4 km/h 89 % 0.0 mm 258 W/m2
09:50 20.0 °C 18.0 °C 1020.5 hPa Calm   6.4 km/h 88 % 0.0 mm 417 W/m2
09:55 20.3 °C 18.0 °C 1020.5 hPa NW 4.8 km/h 9.7 km/h 87 % 0.0 mm 318 W/m2
10:00 20.3 °C 18.1 °C 1020.9 hPa Calm   11.3 km/h 87 % 0.0 mm 325 W/m2
10:05 20.3 °C 17.9 °C 1020.9 hPa NNW 8.0 km/h 12.9 km/h 86 % 0.0 mm 364 W/m2
10:10 20.5 °C 17.7 °C 1020.9 hPa WNW 8.0 km/h 12.9 km/h 84 % 0.0 mm 338 W/m2
10:15 20.4 °C 17.8 °C 1020.9 hPa NW 1.6 km/h 9.7 km/h 85 % 0.0 mm 297 W/m2
10:20 20.7 °C 18.1 °C 1020.9 hPa NW 8.0 km/h 11.3 km/h 85 % 0.0 mm 290 W/m2
10:25 20.6 °C 17.6 °C 1020.9 hPa NNW 3.2 km/h 11.3 km/h 83 % 0.0 mm 258 W/m2
10:30 20.7 °C 17.7 °C 1020.9 hPa WNW 3.2 km/h 11.3 km/h 83 % 0.0 mm 269 W/m2
10:35 20.8 °C 17.5 °C 1020.9 hPa WNW 8.0 km/h 9.7 km/h 81 % 0.0 mm 292 W/m2
10:40 20.9 °C 17.8 °C 1020.9 hPa NNW 6.4 km/h 11.3 km/h 82 % 0.0 mm 283 W/m2
10:45 21.1 °C 17.7 °C 1020.9 hPa WNW 4.8 km/h 12.9 km/h 81 % 0.0 mm 185 W/m2
10:50 20.7 °C 17.5 °C 1020.9 hPa NW 3.2 km/h 12.9 km/h 82 % 0.0 mm 186 W/m2
10:55 20.7 °C 17.7 °C 1020.9 hPa WNW 6.4 km/h 12.9 km/h 83 % 0.0 mm 262 W/m2
11:00 20.8 °C 17.5 °C 1020.9 hPa NW 6.4 km/h 12.9 km/h 81 % 0.0 mm 271 W/m2
11:05 20.9 °C 17.6 °C 1020.5 hPa NW 4.8 km/h 11.3 km/h 81 % 0.0 mm 330 W/m2
11:15 21.2 °C 17.6 °C 1020.5 hPa NW 8.0 km/h 12.9 km/h 80 % 0.0 mm 336 W/m2
11:20 20.9 °C 17.3 °C 1020.5 hPa NNW 4.8 km/h 12.9 km/h 80 % 0.0 mm 334 W/m2
11:30 21.4 °C 17.6 °C 1020.5 hPa WNW 1.6 km/h 9.7 km/h 79 % 0.0 mm 566 W/m2
11:40 22.5 °C 18.3 °C 1020.5 hPa WNW 6.4 km/h 12.9 km/h 77 % 0.0 mm 1039 W/m2
11:45 22.8 °C 18.2 °C 1020.5 hPa NNW 6.4 km/h 9.7 km/h 75 % 0.0 mm 652 W/m2
11:50 23.1 °C 17.7 °C 1020.5 hPa WSW 3.2 km/h 11.3 km/h 72 % 0.0 mm 849 W/m2
11:55 22.5 °C 17.8 °C 1020.5 hPa Calm   11.3 km/h 75 % 0.0 mm 325 W/m2
12:00 23.1 °C 18.0 °C 1020.5 hPa North 8.0 km/h 11.3 km/h 73 % 0.0 mm 905 W/m2
12:05 23.6 °C 18.4 °C 1020.5 hPa NW 9.7 km/h 12.9 km/h 73 % 0.0 mm 633 W/m2
12:10 22.3 °C 17.5 °C 1020.5 hPa SSW 1.6 km/h 14.5 km/h 74 % 0.0 mm 234 W/m2
12:15 22.8 °C 18.9 °C 1020.5 hPa WSW 8.0 km/h 14.5 km/h 79 % 0.0 mm 749 W/m2
12:20 22.7 °C 18.1 °C 1020.5 hPa NW 12.9 km/h 16.1 km/h 75 % 0.0 mm 545 W/m2
12:25 22.4 °C 18.2 °C 1020.5 hPa West 6.4 km/h 16.1 km/h 77 % 0.0 mm 691 W/m2
12:30 22.7 °C 18.5 °C 1020.9 hPa WSW 8.0 km/h 14.5 km/h 77 % 0.0 mm 715 W/m2
12:35 23.1 °C 18.4 °C 1020.9 hPa West 6.4 km/h 17.7 km/h 75 % 0.0 mm 577 W/m2
12:40 23.1 °C 18.6 °C 1020.9 hPa West 14.5 km/h 17.7 km/h 76 % 0.0 mm 977 W/m2
12:45 22.4 °C 18.2 °C 1020.5 hPa West 6.4 km/h 17.7 km/h 77 % 0.0 mm 710 W/m2
12:50 22.3 °C 18.5 °C 1020.5 hPa West 19.3 km/h 19.3 km/h 79 % 0.0 mm 515 W/m2
12:55 22.3 °C 17.8 °C 1020.5 hPa WSW 11.3 km/h 19.3 km/h 76 % 0.0 mm 552 W/m2
13:00 22.1 °C 18.1 °C 1020.5 hPa West 11.3 km/h 19.3 km/h 78 % 0.0 mm 448 W/m2
13:05 21.3 °C 17.9 °C 1020.5 hPa WNW 3.2 km/h 22.5 km/h 81 % 0.0 mm 427 W/m2
13:10 21.8 °C 18.2 °C 1020.5 hPa WNW 3.2 km/h 22.5 km/h 80 % 0.0 mm 464 W/m2
13:15 21.8 °C 18.0 °C 1020.5 hPa West 12.9 km/h 20.9 km/h 79 % 0.0 mm 504 W/m2
13:20 21.5 °C 17.9 °C 1020.5 hPa SW 6.4 km/h 20.9 km/h 80 % 0.0 mm 596 W/m2
13:25 21.8 °C 18.2 °C 1020.5 hPa West 6.4 km/h 20.9 km/h 80 % 0.0 mm 522 W/m2
13:30 21.6 °C 17.8 °C 1020.5 hPa WNW 16.1 km/h 16.1 km/h 79 % 0.0 mm 476 W/m2
13:35 21.5 °C 17.9 °C 1020.9 hPa West 14.5 km/h 22.5 km/h 80 % 0.0 mm 404 W/m2
13:40 21.3 °C 17.9 °C 1020.9 hPa Calm   22.5 km/h 81 % 0.0 mm 396 W/m2
13:45 21.1 °C 17.7 °C 1020.9 hPa West 8.0 km/h 20.9 km/h 81 % 0.0 mm 404 W/m2
13:50 20.9 °C 17.8 °C 1020.9 hPa WSW 11.3 km/h 24.1 km/h 82 % 0.0 mm 438 W/m2
13:55 21.6 °C 18.6 °C 1020.9 hPa West 4.8 km/h 24.1 km/h 83 % 0.0 mm 380 W/m2
14:00 21.4 °C 17.8 °C 1020.9 hPa NW 12.9 km/h 19.3 km/h 80 % 0.0 mm 338 W/m2
14:05 21.6 °C 18.0 °C 1020.9 hPa NW 4.8 km/h 19.3 km/h 80 % 0.0 mm 325 W/m2
14:10 21.3 °C 17.9 °C 1020.9 hPa West 8.0 km/h 20.9 km/h 81 % 0.0 mm 359 W/m2
14:15 21.3 °C 17.7 °C 1020.9 hPa WNW 8.0 km/h 20.9 km/h 80 % 0.0 mm 504 W/m2
14:20 21.5 °C 18.1 °C 1020.9 hPa West 9.7 km/h 20.9 km/h 81 % 0.0 mm 497 W/m2
14:25 21.3 °C 17.3 °C 1020.9 hPa WSW 11.3 km/h 22.5 km/h 78 % 0.0 mm 506 W/m2
14:30 22.0 °C 17.6 °C 1020.9 hPa WNW 12.9 km/h 24.1 km/h 76 % 0.0 mm 541 W/m2
14:35 21.8 °C 17.6 °C 1020.9 hPa West 16.1 km/h 24.1 km/h 77 % 0.0 mm 538 W/m2
14:40 21.8 °C 17.2 °C 1020.9 hPa WSW 14.5 km/h 24.1 km/h 75 % 0.0 mm 483 W/m2
14:45 21.3 °C 17.3 °C 1020.5 hPa SW 3.2 km/h 22.5 km/h 78 % 0.0 mm 452 W/m2
14:50 21.6 °C 17.1 °C 1020.5 hPa WNW 6.4 km/h 22.5 km/h 76 % 0.0 mm 431 W/m2
14:55 21.3 °C 16.9 °C 1020.5 hPa West 8.0 km/h 22.5 km/h 76 % 0.0 mm 469 W/m2
15:00 21.7 °C 17.7 °C 1020.5 hPa WSW 8.0 km/h 22.5 km/h 78 % 0.0 mm 742 W/m2
15:05 22.6 °C 17.5 °C 1020.5 hPa WNW 12.9 km/h 22.5 km/h 73 % 0.0 mm 561 W/m2
15:10 21.8 °C 16.7 °C 1020.5 hPa West 17.7 km/h 25.7 km/h 73 % 0.0 mm 448 W/m2
15:15 21.8 °C 17.4 °C 1020.5 hPa NW 9.7 km/h 25.7 km/h 76 % 0.0 mm 413 W/m2
15:20 21.6 °C 17.1 °C 1020.9 hPa WSW 12.9 km/h 25.7 km/h 76 % 0.0 mm 406 W/m2
15:25 22.1 °C 17.3 °C 1020.5 hPa West 8.0 km/h 29.0 km/h 74 % 0.0 mm 1005 W/m2
15:30 22.9 °C 17.6 °C 1020.5 hPa WNW 6.4 km/h 29.0 km/h 72 % 0.0 mm 874 W/m2
15:35 23.3 °C 17.1 °C 1020.5 hPa West 8.0 km/h 25.7 km/h 68 % 0.0 mm 889 W/m2
15:40 23.4 °C 16.5 °C 1020.9 hPa West 19.3 km/h 25.7 km/h 65 % 0.0 mm 833 W/m2
15:45 23.2 °C 16.8 °C 1020.5 hPa West 11.3 km/h 24.1 km/h 67 % 0.0 mm 826 W/m2
15:50 23.0 °C 16.3 °C 1020.9 hPa West 20.9 km/h 25.7 km/h 66 % 0.0 mm 777 W/m2
15:55 22.6 °C 16.8 °C 1020.9 hPa NW 12.9 km/h 25.7 km/h 70 % 0.0 mm 780 W/m2
16:00 22.8 °C 16.1 °C 1020.9 hPa WNW 22.5 km/h 29.0 km/h 66 % 0.0 mm 809 W/m2
16:05 22.9 °C 16.4 °C 1020.5 hPa West 16.1 km/h 29.0 km/h 67 % 0.0 mm 793 W/m2
16:10 22.8 °C 16.1 °C 1020.5 hPa WNW 6.4 km/h 27.4 km/h 66 % 0.0 mm 784 W/m2
16:15 23.4 °C 16.5 °C 1020.5 hPa WNW 19.3 km/h 22.5 km/h 65 % 0.0 mm 775 W/m2
16:20 23.4 °C 16.0 °C 1020.9 hPa West 4.8 km/h 22.5 km/h 63 % 0.0 mm 768 W/m2
16:25 23.4 °C 15.7 °C 1020.5 hPa NW 4.8 km/h 24.1 km/h 62 % 0.0 mm 761 W/m2
16:30 23.2 °C 15.3 °C 1020.9 hPa West 8.0 km/h 25.7 km/h 61 % 0.0 mm 751 W/m2
16:35 22.9 °C 15.0 °C 1020.5 hPa NW 4.8 km/h 25.7 km/h 61 % 0.0 mm 744 W/m2
16:40 22.7 °C 16.0 °C 1020.9 hPa WSW 8.0 km/h 25.7 km/h 66 % 0.0 mm 733 W/m2
16:45 22.4 °C 15.0 °C 1020.9 hPa West 6.4 km/h 25.7 km/h 63 % 0.0 mm 724 W/m2
16:50 22.4 °C 15.5 °C 1020.5 hPa West 19.3 km/h 27.4 km/h 65 % 0.0 mm 714 W/m2
16:55 22.2 °C 15.1 °C 1020.9 hPa West 3.2 km/h 27.4 km/h 64 % 0.0 mm 705 W/m2
17:00 22.5 °C 15.3 °C 1020.9 hPa West 11.3 km/h 27.4 km/h 64 % 0.0 mm 689 W/m2
17:05 22.3 °C 15.4 °C 1020.9 hPa West 19.3 km/h 27.4 km/h 65 % 0.0 mm 682 W/m2
17:10 21.9 °C 15.8 °C 1020.9 hPa WNW 8.0 km/h 27.4 km/h 68 % 0.0 mm 670 W/m2
17:15 22.4 °C 16.0 °C 1020.9 hPa SSW 1.6 km/h 27.4 km/h 67 % 0.0 mm 661 W/m2
17:20 21.9 °C 15.9 °C 1020.5 hPa WSW 6.4 km/h 27.4 km/h 69 % 0.0 mm 650 W/m2
17:25 22.4 °C 16.5 °C 1020.9 hPa WNW 8.0 km/h 27.4 km/h 69 % 0.0 mm 638 W/m2
17:30 22.8 °C 16.3 °C 1020.5 hPa West 11.3 km/h 27.4 km/h 67 % 0.0 mm 629 W/m2
17:35 22.6 °C 16.1 °C 1020.9 hPa West 12.9 km/h 24.1 km/h 67 % 0.0 mm 617 W/m2
17:40 22.4 °C 16.2 °C 1020.5 hPa NW 24.1 km/h 24.1 km/h 68 % 0.0 mm 601 W/m2
17:45 22.2 °C 16.0 °C 1020.5 hPa West 8.0 km/h 27.4 km/h 68 % 0.0 mm 584 W/m2
17:50 22.8 °C 15.6 °C 1020.5 hPa SW 8.0 km/h 27.4 km/h 64 % 0.0 mm 501 W/m2
17:55 22.4 °C 15.5 °C 1020.5 hPa WNW 8.0 km/h 24.1 km/h 65 % 0.0 mm 585 W/m2
18:00 22.3 °C 15.2 °C 1020.5 hPa WSW 6.4 km/h 24.1 km/h 64 % 0.0 mm 564 W/m2
18:05 22.3 °C 14.9 °C 1020.9 hPa WNW 9.7 km/h 24.1 km/h 63 % 0.0 mm 545 W/m2
18:10 22.1 °C 15.6 °C 1020.9 hPa West 11.3 km/h 24.1 km/h 67 % 0.0 mm 520 W/m2
18:15 21.9 °C 15.5 °C 1020.5 hPa WNW 14.5 km/h 24.1 km/h 67 % 0.0 mm 519 W/m2
18:20 21.9 °C 15.7 °C 1020.5 hPa West 12.9 km/h 24.1 km/h 68 % 0.0 mm 506 W/m2
18:25 21.8 °C 15.8 °C 1020.5 hPa WNW 16.1 km/h 22.5 km/h 69 % 0.0 mm 482 W/m2
18:30 21.5 °C 15.3 °C 1020.5 hPa WNW 12.9 km/h 24.1 km/h 68 % 0.0 mm 487 W/m2
18:35 21.2 °C 15.5 °C 1020.5 hPa WNW 14.5 km/h 27.4 km/h 70 % 0.0 mm 482 W/m2
18:40 21.3 °C 15.1 °C 1020.5 hPa WSW 11.3 km/h 27.4 km/h 68 % 0.0 mm 501 W/m2
18:45 21.4 °C 15.3 °C 1020.5 hPa WNW 12.9 km/h 25.7 km/h 68 % 0.0 mm 499 W/m2
18:50 21.4 °C 14.8 °C 1020.5 hPa West 11.3 km/h 22.5 km/h 66 % 0.0 mm 327 W/m2
18:55 21.2 °C 15.3 °C 1020.5 hPa WNW 11.3 km/h 22.5 km/h 69 % 0.0 mm 422 W/m2
19:00 21.3 °C 15.6 °C 1020.5 hPa West 9.7 km/h 22.5 km/h 70 % 0.0 mm 431 W/m2
19:05 21.5 °C 15.8 °C 1020.5 hPa WSW 6.4 km/h 22.5 km/h 70 % 0.0 mm 420 W/m2
19:10 21.5 °C 15.6 °C 1020.5 hPa WNW 6.4 km/h 22.5 km/h 69 % 0.0 mm 383 W/m2
19:15 21.7 °C 15.7 °C 1020.5 hPa WNW 11.3 km/h 22.5 km/h 69 % 0.0 mm 367 W/m2
19:20 21.6 °C 15.8 °C 1020.5 hPa WNW 14.5 km/h 20.9 km/h 70 % 0.0 mm 346 W/m2
19:25 21.6 °C 15.7 °C 1020.5 hPa WNW 11.3 km/h 17.7 km/h 69 % 0.0 mm 329 W/m2
19:30 21.7 °C 15.6 °C 1020.5 hPa WSW 9.7 km/h 17.7 km/h 68 % 0.0 mm 316 W/m2
19:35 21.6 °C 15.4 °C 1020.5 hPa WNW 12.9 km/h 16.1 km/h 68 % 0.0 mm 297 W/m2
19:40 21.7 °C 15.3 °C 1020.5 hPa NW 8.0 km/h 20.9 km/h 67 % 0.0 mm 279 W/m2
19:45 21.7 °C 15.1 °C 1020.9 hPa West 3.2 km/h 20.9 km/h 66 % 0.0 mm 265 W/m2
19:50 21.6 °C 14.7 °C 1020.9 hPa WSW 8.0 km/h 19.3 km/h 65 % 0.0 mm 244 W/m2
19:55 21.4 °C 14.5 °C 1020.9 hPa WNW 8.0 km/h 20.9 km/h 65 % 0.0 mm 218 W/m2
20:00 21.3 °C 14.7 °C 1020.9 hPa WNW 12.9 km/h 20.9 km/h 66 % 0.0 mm 193 W/m2
20:05 21.3 °C 15.0 °C 1020.9 hPa WNW 9.7 km/h 22.5 km/h 67 % 0.0 mm 176 W/m2
20:10 21.2 °C 14.8 °C 1020.9 hPa WSW 17.7 km/h 22.5 km/h 67 % 0.0 mm 162 W/m2
20:15 21.1 °C 15.0 °C 1020.9 hPa WNW 4.8 km/h 19.3 km/h 68 % 0.0 mm 155 W/m2
20:20 21.1 °C 15.0 °C 1020.9 hPa WNW 11.3 km/h 17.7 km/h 68 % 0.0 mm 151 W/m2
20:25 21.0 °C 15.1 °C 1020.9 hPa WSW 12.9 km/h 14.5 km/h 69 % 0.0 mm 135 W/m2
20:30 20.7 °C 14.6 °C 1020.5 hPa WNW 6.4 km/h 19.3 km/h 68 % 0.0 mm 113 W/m2
20:35 20.6 °C 14.9 °C 1020.5 hPa WNW 3.2 km/h 19.3 km/h 70 % 0.0 mm 98 W/m2
20:40 20.4 °C 14.7 °C 1020.5 hPa West 11.3 km/h 16.1 km/h 70 % 0.0 mm 62 W/m2
20:45 20.2 °C 14.8 °C 1020.5 hPa WNW 3.2 km/h 16.1 km/h 71 % 0.0 mm 51 W/m2
20:50 20.1 °C 14.9 °C 1020.5 hPa SW 3.2 km/h 19.3 km/h 72 % 0.0 mm 32 W/m2
20:55 19.9 °C 14.9 °C 1020.5 hPa WNW 6.4 km/h 19.3 km/h 73 % 0.0 mm 32 W/m2
21:00 19.7 °C 15.0 °C 1020.5 hPa NW 8.0 km/h 12.9 km/h 74 % 0.0 mm 26 W/m2
21:05 19.6 °C 14.8 °C 1020.5 hPa WNW 4.8 km/h 16.1 km/h 74 % 0.0 mm 25 W/m2
21:10 19.5 °C 14.9 °C 1020.5 hPa NW 9.7 km/h 16.1 km/h 75 % 0.0 mm 23 W/m2
21:15 19.3 °C 14.8 °C 1020.5 hPa WNW 6.4 km/h 14.5 km/h 75 % 0.0 mm 21 W/m2
21:20 19.3 °C 15.1 °C 1020.5 hPa West 6.4 km/h 14.5 km/h 77 % 0.0 mm 19 W/m2
21:25 19.2 °C 15.3 °C 1020.5 hPa West 4.8 km/h 14.5 km/h 78 % 0.0 mm 18 W/m2
21:30 19.0 °C 15.3 °C 1020.5 hPa West 9.7 km/h 12.9 km/h 79 % 0.0 mm 16 W/m2
21:35 18.9 °C 15.4 °C 1020.9 hPa WSW 1.6 km/h 11.3 km/h 80 % 0.0 mm 14 W/m2
21:40 18.8 °C 15.3 °C 1020.9 hPa NNW 4.8 km/h 12.9 km/h 80 % 0.0 mm 12 W/m2
21:45 18.7 °C 15.6 °C 1020.9 hPa West 1.6 km/h 12.9 km/h 82 % 0.0 mm 9 W/m2
21:50 18.6 °C 15.7 °C 1020.9 hPa West 4.8 km/h 11.3 km/h 83 % 0.0 mm 7 W/m2
21:55 18.5 °C 15.7 °C 1020.9 hPa WSW 9.7 km/h 11.3 km/h 84 % 0.0 mm 5 W/m2
22:00 18.4 °C 15.8 °C 1020.9 hPa WNW 8.0 km/h 11.3 km/h 85 % 0.0 mm 0 W/m2
22:05 18.4 °C 16.0 °C 1020.9 hPa WSW 9.7 km/h 11.3 km/h 86 % 0.0 mm 0 W/m2
22:10 18.3 °C 15.9 °C 1020.9 hPa WSW 1.6 km/h 11.3 km/h 86 % 0.0 mm 0 W/m2
22:15 18.3 °C 15.9 °C 1020.9 hPa WNW 1.6 km/h 9.7 km/h 86 % 0.0 mm 0 W/m2
22:20 18.1 °C 15.7 °C 1020.9 hPa West 1.6 km/h 9.7 km/h 86 % 0.0 mm 0 W/m2
22:25 17.9 °C 15.7 °C 1020.9 hPa West 4.8 km/h 9.7 km/h 87 % 0.0 mm 0 W/m2
22:30 17.7 °C 15.7 °C 1021.2 hPa Calm   9.7 km/h 88 % 0.0 mm 0 W/m2
22:35 17.8 °C 15.9 °C 1021.2 hPa Calm   9.7 km/h 89 % 0.0 mm 0 W/m2
22:40 17.8 °C 16.0 °C 1021.2 hPa Calm   9.7 km/h 89 % 0.0 mm 0 W/m2
22:45 18.0 °C 16.2 °C 1021.2 hPa WNW 1.6 km/h 11.3 km/h 89 % 0.0 mm 0 W/m2
22:50 17.9 °C 16.1 °C 1021.2 hPa NW 1.6 km/h 11.3 km/h 89 % 0.0 mm 0 W/m2
22:55 18.1 °C 16.3 °C 1021.2 hPa WNW 3.2 km/h 9.7 km/h 89 % 0.0 mm 0 W/m2
23:00 18.2 °C 16.4 °C 1021.2 hPa Calm   9.7 km/h 89 % 0.0 mm 0 W/m2
23:05 18.2 °C 16.2 °C 1021.6 hPa NW 4.8 km/h 9.7 km/h 88 % 0.0 mm 0 W/m2
23:10 18.2 °C 16.3 °C 1021.6 hPa WNW 3.2 km/h 8.0 km/h 89 % 0.0 mm 0 W/m2
23:15 18.0 °C 16.2 °C 1021.2 hPa Calm   4.8 km/h 89 % 0.0 mm 0 W/m2
23:20 17.7 °C 15.8 °C 1021.6 hPa Calm   4.8 km/h 89 % 0.0 mm 0 W/m2
23:25 17.5 °C 15.8 °C 1021.6 hPa NNW 4.8 km/h 6.4 km/h 90 % 0.0 mm 0 W/m2
23:30 17.3 °C 15.8 °C 1021.6 hPa NNW 8.0 km/h 8.0 km/h 91 % 0.0 mm 0 W/m2
23:35 17.2 °C 15.7 °C 1021.6 hPa NNW 1.6 km/h 8.0 km/h 91 % 0.0 mm 0 W/m2
23:40 17.1 °C 15.6 °C 1021.6 hPa North 4.8 km/h 9.7 km/h 91 % 0.0 mm 0 W/m2
23:45 17.0 °C 15.5 °C 1021.6 hPa NNE 6.4 km/h 11.3 km/h 91 % 0.0 mm 0 W/m2
23:50 17.1 °C 15.4 °C 1021.6 hPa NNW 4.8 km/h 11.3 km/h 90 % 0.0 mm 0 W/m2
23:55 17.3 °C 15.4 °C 1021.6 hPa North 14.5 km/h 14.5 km/h 89 % 0.0 mm 0 W/m2
Avec l'autorisation de Weather Underground - 1.75 mb